Time;durP1;ratioP1;P1;durP2;ratioP2;P2;SDS_P1;SDS_P2;PMS_P1;PMS_P2;Temp;Humidity;BMP_temperature;BMP_pressure;BME280_temperature;BME280_humidity;BME280_pressure;Samples;Min_cycle;Max_cycle;Signal;HPM_P1;HPM_P2
2023/05/12 00:01:31;;;;;;;22.23;16.05;;;11.50;99.90;;;;;;5041254;28;20064;-76
2023/05/12 00:03:58;;;;;;;23.50;16.52;;;11.50;99.90;;;;;;5042036;28;20052;-74
2023/05/12 00:06:26;;;;;;;25.67;17.48;;;11.50;99.90;;;;;;5041026;28;20053;-74
2023/05/12 00:08:53;;;;;;;25.55;16.73;;;11.50;99.90;;;;;;5039434;28;20041;-77
2023/05/12 00:11:22;;;;;;;27.20;18.80;;;11.40;99.90;;;;;;5042280;28;20037;-75
2023/05/12 00:13:49;;;;;;;25.83;17.05;;;11.40;99.90;;;;;;5023026;28;20048;-75
2023/05/12 00:16:17;;;;;;;27.92;17.95;;;11.40;99.90;;;;;;5040546;28;20136;-74
2023/05/12 00:18:45;;;;;;;23.15;15.45;;;11.30;99.90;;;;;;5040337;28;20053;-74
2023/05/12 00:21:12;;;;;;;24.80;16.52;;;11.30;99.90;;;;;;5040964;28;20107;-76
2023/05/12 00:23:39;;;;;;;23.98;15.60;;;11.30;99.90;;;;;;5040885;28;20150;-76
2023/05/12 00:26:07;;;;;;;25.58;15.70;;;11.30;99.90;;;;;;5040215;28;20520;-75
2023/05/12 00:28:36;;;;;;;28.95;16.42;;;11.30;99.90;;;;;;5039524;28;20049;-76
2023/05/12 00:31:04;;;;;;;27.08;16.77;;;11.30;99.90;;;;;;5038404;28;20040;-76
2023/05/12 00:33:31;;;;;;;29.42;16.25;;;11.40;99.90;;;;;;5020237;28;20041;-75
2023/05/12 00:36:02;;;;;;;36.42;22.42;;;11.40;99.90;;;;;;5021342;28;20488;-77
2023/05/12 00:38:29;;;;;;;28.83;19.30;;;11.50;99.90;;;;;;5022446;28;20045;-74
2023/05/12 00:40:57;;;;;;;27.40;17.75;;;11.50;99.90;;;;;;5039832;28;20116;-76
2023/05/12 00:43:24;;;;;;;35.58;22.35;;;11.60;99.90;;;;;;5021131;28;20140;-74
2023/05/12 00:45:53;;;;;;;45.35;28.73;;;11.70;99.90;;;;;;5022047;28;20493;-75
2023/05/12 00:48:21;;;;;;;35.92;21.42;;;11.70;99.90;;;;;;5021790;28;20051;-75
2023/05/12 00:50:49;;;;;;;36.30;22.83;;;11.80;99.90;;;;;;5022504;28;20053;-75
2023/05/12 00:53:16;;;;;;;36.75;20.50;;;11.80;99.90;;;;;;5022255;28;20141;-76
2023/05/12 00:55:44;;;;;;;30.20;18.30;;;11.80;99.90;;;;;;5025374;28;20056;-75
2023/05/12 00:58:12;;;;;;;32.63;16.92;;;11.80;99.90;;;;;;5043273;28;20037;-75
2023/05/12 01:00:40;;;;;;;29.00;18.27;;;11.80;99.90;;;;;;5023477;28;20393;-75
2023/05/12 01:03:09;;;;;;;27.15;16.92;;;11.80;99.90;;;;;;5025109;28;20074;-75
2023/05/12 01:05:42;;;;;;;28.23;18.77;;;11.80;99.90;;;;;;5022190;28;20071;-75
2023/05/12 01:08:12;;;;;;;33.10;21.00;;;11.70;99.90;;;;;;5021874;28;20115;-75
2023/05/12 01:10:44;;;;;;;29.17;19.20;;;11.70;99.90;;;;;;5020696;28;20067;-74
2023/05/12 01:13:11;;;;;;;26.48;18.40;;;11.70;99.90;;;;;;5022083;28;20056;-75
2023/05/12 01:15:42;;;;;;;29.10;19.95;;;11.70;99.90;;;;;;5038576;28;20367;-76
2023/05/12 01:18:12;;;;;;;27.48;18.58;;;11.70;99.90;;;;;;5021528;28;20047;-75
2023/05/12 01:20:42;;;;;;;24.67;17.13;;;11.70;99.90;;;;;;5022136;28;20124;-76
2023/05/12 01:23:11;;;;;;;21.88;15.90;;;11.70;99.90;;;;;;5020061;28;20057;-75
2023/05/12 01:25:41;;;;;;;20.48;15.68;;;11.70;99.90;;;;;;5034830;28;20159;-76
2023/05/12 01:28:10;;;;;;;19.58;14.70;;;11.70;99.90;;;;;;5038391;28;20053;-75
2023/05/12 01:30:41;;;;;;;20.02;13.13;;;11.60;99.90;;;;;;5044596;28;20072;-75
2023/05/12 01:33:10;;;;;;;22.23;15.77;;;11.70;99.90;;;;;;5021026;28;20052;-75
2023/05/12 01:35:38;;;;;;;24.45;16.38;;;11.70;99.90;;;;;;5020441;28;20099;-75
2023/05/12 01:38:05;;;;;;;29.25;19.08;;;11.70;99.90;;;;;;5037373;28;20045;-75
2023/05/12 01:40:39;;;;;;;26.92;17.88;;;11.70;99.90;;;;;;5020980;28;20053;-75
2023/05/12 01:43:07;;;;;;;27.52;19.48;;;11.70;99.90;;;;;;5037369;28;20124;-74
2023/05/12 01:45:37;;;;;;;30.80;19.48;;;11.60;99.90;;;;;;5045603;28;20420;-75
2023/05/12 01:48:05;;;;;;;27.15;19.52;;;11.70;99.90;;;;;;5039544;28;20045;-75
2023/05/12 01:50:32;;;;;;;24.58;17.38;;;11.70;99.90;;;;;;5045996;28;20061;-75
2023/05/12 01:53:01;;;;;;;22.45;16.92;;;11.70;99.90;;;;;;5019342;28;20470;-75
2023/05/12 01:55:30;;;;;;;19.92;15.57;;;11.70;99.90;;;;;;5020189;28;20053;-75
2023/05/12 01:57:58;;;;;;;20.02;15.73;;;11.70;99.90;;;;;;5036737;28;20041;-75
2023/05/12 02:00:26;;;;;;;21.05;15.32;;;11.70;99.90;;;;;;5020479;28;20045;-76
2023/05/12 02:02:58;;;;;;;19.55;13.95;;;11.70;99.90;;;;;;5038080;28;20041;-75
2023/05/12 02:05:25;;;;;;;20.58;14.55;;;11.80;99.90;;;;;;5039400;28;20041;-76
2023/05/12 02:07:53;;;;;;;18.48;14.65;;;11.80;99.90;;;;;;5019322;28;20048;-77
2023/05/12 02:10:21;;;;;;;21.30;14.15;;;11.80;99.90;;;;;;5020273;28;20060;-76
2023/05/12 02:12:49;;;;;;;18.00;12.80;;;11.80;99.90;;;;;;5037247;28;20056;-76
2023/05/12 02:15:17;;;;;;;22.70;15.00;;;12.00;99.90;;;;;;5020344;28;20047;-76
2023/05/12 02:17:46;;;;;;;20.33;14.98;;;11.90;99.90;;;;;;5020385;28;20045;-76
2023/05/12 02:20:17;;;;;;;19.67;15.15;;;11.90;99.90;;;;;;5020692;28;20049;-75
2023/05/12 02:22:45;;;;;;;19.83;14.30;;;11.90;99.90;;;;;;5020078;28;20041;-76
2023/05/12 02:25:12;;;;;;;23.48;16.08;;;11.90;99.90;;;;;;5036848;28;20041;-75
2023/05/12 02:27:40;;;;;;;24.60;17.05;;;11.90;99.90;;;;;;5036207;28;20047;-75
2023/05/12 02:30:09;;;;;;;25.92;15.65;;;11.90;99.90;;;;;;5019805;28;20129;-74
2023/05/12 02:32:37;;;;;;;20.40;15.35;;;12.00;99.90;;;;;;5019967;28;20132;-76
2023/05/12 02:35:08;;;;;;;23.92;15.75;;;12.00;99.90;;;;;;5020070;28;20057;-75
2023/05/12 02:37:38;;;;;;;19.23;13.27;;;12.00;99.90;;;;;;5020322;28;20118;-75
2023/05/12 02:40:08;;;;;;;19.42;13.98;;;12.10;99.90;;;;;;5020853;28;20045;-77
2023/05/12 02:42:38;;;;;;;15.63;12.45;;;12.10;99.90;;;;;;5020135;28;20131;-75
2023/05/12 02:45:06;;;;;;;18.33;12.93;;;12.10;99.90;;;;;;5019010;28;20148;-75
2023/05/12 02:47:35;;;;;;;20.65;12.23;;;12.10;99.90;;;;;;5044176;28;20053;-76
2023/05/12 02:50:02;;;;;;;15.80;11.40;;;12.10;99.90;;;;;;5036833;28;20068;-75
2023/05/12 02:52:32;;;;;;;16.08;11.02;;;12.10;99.90;;;;;;5019454;28;20038;-74
2023/05/12 02:55:01;;;;;;;12.02;7.68;;;12.20;99.90;;;;;;5045115;28;20057;-75
2023/05/12 02:57:32;;;;;;;11.88;7.57;;;12.20;99.90;;;;;;5020806;28;20037;-75
2023/05/12 03:00:00;;;;;;;11.23;7.95;;;12.00;99.90;;;;;;5044072;28;20081;-76
2023/05/12 03:02:27;;;;;;;9.50;7.28;;;12.10;99.90;;;;;;5021667;28;20064;-76
2023/05/12 03:04:55;;;;;;;8.85;6.78;;;12.10;99.90;;;;;;5035219;28;20025;-75
2023/05/12 03:07:22;;;;;;;6.32;5.03;;;12.10;99.90;;;;;;5060795;28;20046;-75
2023/05/12 03:09:50;;;;;;;6.30;4.13;;;12.00;99.90;;;;;;5035880;28;20044;-76
2023/05/12 03:12:19;;;;;;;6.25;3.47;;;12.00;99.90;;;;;;5019356;28;20045;-75
2023/05/12 03:14:46;;;;;;;8.15;3.50;;;12.00;99.90;;;;;;5019298;28;20485;-75
2023/05/12 03:17:14;;;;;;;6.47;4.13;;;12.00;99.90;;;;;;5020805;28;20045;-76
2023/05/12 03:19:41;;;;;;;7.10;3.45;;;12.00;99.90;;;;;;5035795;28;20092;-76
2023/05/12 03:22:09;;;;;;;7.10;3.90;;;11.90;99.90;;;;;;5020294;28;20037;-75
2023/05/12 03:24:36;;;;;;;9.48;4.00;;;12.00;99.90;;;;;;5037012;28;20045;-76
2023/05/12 03:27:06;;;;;;;7.70;5.47;;;12.00;99.90;;;;;;5043567;28;20136;-75
2023/05/12 03:29:35;;;;;;;8.48;4.82;;;12.00;99.90;;;;;;5037792;28;20033;-78
2023/05/12 03:32:03;;;;;;;7.50;5.22;;;12.00;99.90;;;;;;5044921;28;20041;-75
2023/05/12 03:34:30;;;;;;;9.00;5.07;;;11.90;99.90;;;;;;5043261;28;20063;-76
2023/05/12 03:36:59;;;;;;;7.13;4.82;;;11.90;99.90;;;;;;5028785;28;20413;-75
2023/05/12 03:39:26;;;;;;;10.77;4.78;;;12.00;99.90;;;;;;5041895;28;20049;-75
2023/05/12 03:41:54;;;;;;;7.70;4.55;;;11.90;99.90;;;;;;5023492;28;20050;-75
2023/05/12 03:44:21;;;;;;;8.65;4.20;;;12.00;99.90;;;;;;5041218;28;20077;-75
2023/05/12 03:46:50;;;;;;;7.95;3.85;;;12.00;99.90;;;;;;5023430;28;20034;-76
2023/05/12 03:49:18;;;;;;;10.32;4.43;;;12.00;99.90;;;;;;5038211;28;20112;-77
2023/05/12 03:51:45;;;;;;;8.40;5.32;;;12.00;99.90;;;;;;5027069;28;20557;-77
2023/05/12 03:54:13;;;;;;;8.45;5.25;;;12.00;99.90;;;;;;5024604;28;20504;-74
2023/05/12 03:56:42;;;;;;;9.35;5.20;;;11.90;99.90;;;;;;5042379;28;20037;-76
2023/05/12 03:59:11;;;;;;;9.23;5.07;;;11.90;99.90;;;;;;5039179;28;20119;-77
2023/05/12 04:01:40;;;;;;;6.93;4.78;;;11.90;99.90;;;;;;5021821;28;20041;-75
2023/05/12 04:04:09;;;;;;;9.15;4.82;;;12.00;99.90;;;;;;5040399;28;20136;-76
2023/05/12 04:06:37;;;;;;;11.13;5.38;;;12.00;99.90;;;;;;5022148;28;20420;-74
2023/05/12 04:09:05;;;;;;;10.80;6.15;;;12.00;99.90;;;;;;5040057;28;20059;-76
2023/05/12 04:11:32;;;;;;;12.68;7.68;;;12.10;99.90;;;;;;5040915;28;20067;-77
2023/05/12 04:14:01;;;;;;;11.93;8.80;;;12.10;99.90;;;;;;5022838;28;20053;-76
2023/05/12 04:16:28;;;;;;;11.68;6.80;;;12.10;99.90;;;;;;5039669;28;20045;-76
2023/05/12 04:18:56;;;;;;;9.77;5.72;;;12.10;99.90;;;;;;5021964;28;20045;-76
2023/05/12 04:21:25;;;;;;;10.93;5.50;;;12.10;99.90;;;;;;5040824;28;20049;-76
2023/05/12 04:23:53;;;;;;;8.40;5.78;;;12.10;99.90;;;;;;5040225;28;20076;-77
2023/05/12 04:26:21;;;;;;;9.85;6.00;;;12.10;99.90;;;;;;5037950;28;20144;-75
2023/05/12 04:28:49;;;;;;;9.48;5.82;;;12.20;99.90;;;;;;5038945;28;20132;-76
2023/05/12 04:31:16;;;;;;;11.68;6.88;;;12.20;99.90;;;;;;5021726;28;20088;-77
2023/05/12 04:33:44;;;;;;;13.05;7.70;;;12.30;99.90;;;;;;5021122;28;20049;-76
2023/05/12 04:36:12;;;;;;;10.32;6.13;;;12.30;99.90;;;;;;5018972;28;20056;-74
2023/05/12 04:38:42;;;;;;;11.02;5.95;;;12.40;99.90;;;;;;5020751;28;20460;-77
2023/05/12 04:41:10;;;;;;;9.15;5.50;;;12.40;99.90;;;;;;5045985;28;20037;-75
2023/05/12 04:43:37;;;;;;;13.20;6.05;;;12.40;99.90;;;;;;5021655;28;20045;-77
2023/05/12 04:46:05;;;;;;;10.57;7.03;;;12.40;99.90;;;;;;5022827;28;20056;-74
2023/05/12 04:48:33;;;;;;;10.35;7.45;;;12.40;99.90;;;;;;5022788;28;20520;-76
2023/05/12 04:51:01;;;;;;;14.43;7.53;;;12.40;99.90;;;;;;5040580;28;20142;-74
2023/05/12 04:53:33;;;;;;;9.35;6.40;;;12.40;99.90;;;;;;5022417;28;20046;-76
2023/05/12 04:56:02;;;;;;;9.88;6.45;;;12.40;99.90;;;;;;5039850;28;20119;-75
2023/05/12 04:58:33;;;;;;;10.48;5.60;;;12.50;99.90;;;;;;5021813;28;20037;-76
2023/05/12 05:01:01;;;;;;;8.88;5.20;;;12.50;99.90;;;;;;5039441;28;20061;-76
2023/05/12 05:03:28;;;;;;;8.38;5.75;;;12.60;99.90;;;;;;5046505;28;20048;-76
2023/05/12 05:05:56;;;;;;;10.82;5.72;;;12.60;99.90;;;;;;5024630;28;20064;-76
2023/05/12 05:08:24;;;;;;;7.97;4.82;;;12.60;99.90;;;;;;5027780;28;20087;-77
2023/05/12 05:10:51;;;;;;;8.85;6.25;;;12.60;99.90;;;;;;5026710;28;20449;-78
2023/05/12 05:13:20;;;;;;;12.45;7.40;;;12.70;99.90;;;;;;5043484;28;20049;-77
2023/05/12 05:15:51;;;;;;;10.18;5.78;;;12.70;99.90;;;;;;5025974;28;20048;-77
2023/05/12 05:18:19;;;;;;;10.60;5.82;;;12.80;99.90;;;;;;5026058;28;20049;-76
2023/05/12 05:20:47;;;;;;;8.75;5.57;;;13.00;99.90;;;;;;5026950;28;20462;-77
2023/05/12 05:23:15;;;;;;;9.80;5.75;;;13.00;99.90;;;;;;5043911;28;20111;-76
2023/05/12 05:25:42;;;;;;;10.95;5.82;;;13.00;99.90;;;;;;5041819;28;20069;-77
2023/05/12 05:28:10;;;;;;;11.25;7.20;;;13.10;99.90;;;;;;5023150;28;20128;-76
2023/05/12 05:30:39;;;;;;;10.88;6.90;;;13.10;99.90;;;;;;5020727;28;20041;-77
2023/05/12 05:33:07;;;;;;;13.30;6.63;;;13.10;99.90;;;;;;5026617;28;20132;-76
2023/05/12 05:35:35;;;;;;;13.38;7.63;;;13.20;99.90;;;;;;5026414;28;20038;-77
2023/05/12 05:38:02;;;;;;;9.85;6.80;;;13.20;99.90;;;;;;5025738;28;20052;-75
2023/05/12 05:40:31;;;;;;;9.82;6.70;;;13.20;99.90;;;;;;5022986;28;20037;-77
2023/05/12 05:43:00;;;;;;;11.02;7.10;;;13.10;99.90;;;;;;5040477;28;20044;-77
2023/05/12 05:45:27;;;;;;;11.65;7.07;;;13.20;99.90;;;;;;5025759;28;20045;-76
2023/05/12 05:47:57;;;;;;;9.15;6.30;;;13.20;99.90;;;;;;5025908;28;20144;-77
2023/05/12 05:50:25;;;;;;;9.68;6.03;;;13.30;99.90;;;;;;5028752;28;20469;-79
2023/05/12 05:52:53;;;;;;;9.73;5.55;;;13.40;99.90;;;;;;5045116;28;20071;-77
2023/05/12 05:55:21;;;;;;;8.15;5.25;;;13.40;99.90;;;;;;5025100;28;20033;-78
2023/05/12 05:57:50;;;;;;;7.45;4.72;;;13.50;99.90;;;;;;5022413;28;20045;-76
2023/05/12 06:00:18;;;;;;;12.50;5.88;;;13.60;99.90;;;;;;5022107;28;20670;-77
2023/05/12 06:02:50;;;;;;;9.30;4.95;;;13.80;99.90;;;;;;5040595;28;20132;-77
2023/05/12 06:05:22;;;;;;;7.50;5.38;;;14.00;99.90;;;;;;5039434;28;20045;-76
2023/05/12 06:07:49;;;;;;;6.07;4.65;;;14.00;99.90;;;;;;5039109;28;20044;-76
2023/05/12 06:10:17;;;;;;;9.23;6.32;;;14.00;99.90;;;;;;5037357;28;20480;-76
2023/05/12 06:12:44;;;;;;;9.48;6.15;;;14.00;99.90;;;;;;5021418;28;20088;-76
2023/05/12 06:15:12;;;;;;;13.07;7.35;;;14.10;99.90;;;;;;5021099;28;20102;-76
2023/05/12 06:17:39;;;;;;;11.63;8.55;;;14.30;99.90;;;;;;5039096;28;20068;-78
2023/05/12 06:20:08;;;;;;;8.60;6.50;;;14.40;99.90;;;;;;5020179;28;20040;-76
2023/05/12 06:22:37;;;;;;;8.30;5.60;;;14.50;99.90;;;;;;5021077;28;20046;-76
2023/05/12 06:25:05;;;;;;;9.85;6.00;;;14.50;99.90;;;;;;5037937;28;20128;-74
2023/05/12 06:27:33;;;;;;;8.52;6.93;;;14.50;99.90;;;;;;5037881;28;20049;-76
2023/05/12 06:30:00;;;;;;;9.82;8.07;;;14.50;99.90;;;;;;5036172;28;20103;-75
2023/05/12 06:32:27;;;;;;;8.52;6.75;;;14.60;99.90;;;;;;5038807;28;20064;-77
2023/05/12 06:34:55;;;;;;;9.52;7.18;;;14.70;99.90;;;;;;5036476;28;20057;-75
2023/05/12 06:37:24;;;;;;;13.65;9.32;;;14.70;99.90;;;;;;5020332;28;20210;-77
2023/05/12 06:39:52;;;;;;;16.60;7.85;;;14.80;99.90;;;;;;5037669;28;20172;-75
2023/05/12 06:42:20;;;;;;;9.65;7.40;;;14.90;99.90;;;;;;5037224;28;20060;-76
2023/05/12 06:44:53;;;;;;;11.93;7.45;;;15.10;99.90;;;;;;5020630;28;20076;-75
2023/05/12 06:47:21;;;;;;;9.98;6.38;;;15.00;99.90;;;;;;5021203;28;20041;-76
2023/05/12 06:49:50;;;;;;;6.63;5.43;;;15.00;99.90;;;;;;5019648;28;20052;-76
2023/05/12 06:52:19;;;;;;;8.77;5.28;;;15.00;99.90;;;;;;5019459;28;20041;-76
2023/05/12 06:54:46;;;;;;;7.43;4.88;;;15.10;99.90;;;;;;5019933;28;20380;-76
2023/05/12 06:57:15;;;;;;;8.27;5.00;;;15.10;99.90;;;;;;5019002;28;20414;-76
2023/05/12 06:59:42;;;;;;;6.70;5.00;;;15.30;99.90;;;;;;5036695;28;20041;-77
2023/05/12 07:02:10;;;;;;;7.70;5.53;;;15.40;99.90;;;;;;5037893;28;20049;-76
2023/05/12 07:04:37;;;;;;;6.78;5.13;;;15.50;99.90;;;;;;5037232;28;20045;-75
2023/05/12 07:07:05;;;;;;;8.48;5.68;;;15.60;99.90;;;;;;5037122;28;20057;-75
2023/05/12 07:09:32;;;;;;;14.13;10.57;;;15.50;99.90;;;;;;5037013;28;20414;-76
2023/05/12 07:11:59;;;;;;;17.83;11.02;;;15.60;99.90;;;;;;5037410;28;20046;-76
2023/05/12 07:14:28;;;;;;;12.98;9.75;;;15.80;99.90;;;;;;5037816;28;20072;-76
2023/05/12 07:16:56;;;;;;;18.73;12.30;;;16.20;99.90;;;;;;5019629;28;20049;-75
2023/05/12 07:19:23;;;;;;;12.95;9.32;;;16.80;99.90;;;;;;5036559;28;20042;-73
2023/05/12 07:21:50;;;;;;;6.30;5.20;;;17.20;99.90;;;;;;5037854;28;20417;-76
2023/05/12 07:24:18;;;;;;;8.63;5.70;;;17.70;99.90;;;;;;5037707;28;20107;-74
2023/05/12 07:26:47;;;;;;;9.00;6.57;;;18.00;99.90;;;;;;5037759;28;20036;-75
2023/05/12 07:29:14;;;;;;;10.63;6.13;;;18.20;99.90;;;;;;5036886;28;20072;-75
2023/05/12 07:31:43;;;;;;;9.13;4.60;;;18.20;99.90;;;;;;5037701;28;20045;-76
2023/05/12 07:34:10;;;;;;;7.18;3.75;;;18.20;99.90;;;;;;5037272;28;20405;-75
2023/05/12 07:36:38;;;;;;;6.72;4.28;;;18.40;99.90;;;;;;5037197;28;20045;-75
2023/05/12 07:39:05;;;;;;;4.28;3.10;;;18.40;99.90;;;;;;5035068;28;20053;-77
2023/05/12 07:41:33;;;;;;;6.55;3.42;;;18.50;99.90;;;;;;5038160;28;20049;-73
2023/05/12 07:44:01;;;;;;;4.50;3.22;;;18.30;99.90;;;;;;5037639;28;20044;-76
2023/05/12 07:46:28;;;;;;;6.63;3.22;;;18.40;99.90;;;;;;5034680;28;20051;-76
2023/05/12 07:48:57;;;;;;;5.00;2.10;;;18.50;99.90;;;;;;5036053;28;20045;-76
2023/05/12 07:51:24;;;;;;;5.65;2.30;;;18.60;99.90;;;;;;5036278;28;20053;-76
2023/05/12 07:53:54;;;;;;;6.95;2.20;;;18.70;99.90;;;;;;5037716;28;20041;-76
2023/05/12 07:56:21;;;;;;;5.18;2.20;;;18.60;99.90;;;;;;5037134;28;20072;-76
2023/05/12 07:58:49;;;;;;;7.78;2.47;;;18.60;99.90;;;;;;5036614;28;20045;-76
2023/05/12 08:01:16;;;;;;;5.25;3.50;;;18.50;99.90;;;;;;5038597;28;20036;-77
2023/05/12 08:03:44;;;;;;;4.47;2.75;;;18.70;99.90;;;;;;5046674;28;20045;-84
2023/05/12 08:06:13;;;;;;;3.10;2.08;;;19.00;99.90;;;;;;5054682;28;20053;-79
2023/05/12 08:08:40;;;;;;;3.72;2.05;;;19.00;99.90;;;;;;5038760;28;20053;-77
2023/05/12 08:11:08;;;;;;;5.82;2.35;;;19.10;99.90;;;;;;5036205;28;21017;-76
2023/05/12 08:13:37;;;;;;;3.72;2.20;;;19.00;99.90;;;;;;5037797;28;20493;-76
2023/05/12 08:16:05;;;;;;;4.57;2.13;;;19.00;99.90;;;;;;5037863;28;20080;-76
2023/05/12 08:18:33;;;;;;;4.65;1.73;;;19.20;99.90;;;;;;5040258;28;20107;-77
2023/05/12 08:21:00;;;;;;;3.45;1.88;;;19.20;99.90;;;;;;5040591;28;20048;-77
2023/05/12 08:23:29;;;;;;;4.53;1.48;;;19.10;99.90;;;;;;5041521;28;20045;-76
2023/05/12 08:25:56;;;;;;;2.63;1.75;;;19.00;99.90;;;;;;5040810;28;20041;-83
2023/05/12 08:28:24;;;;;;;4.80;1.80;;;19.20;99.90;;;;;;5022706;28;20497;-79
2023/05/12 08:30:51;;;;;;;4.32;1.60;;;19.30;99.90;;;;;;5042170;28;20047;-76
2023/05/12 08:33:19;;;;;;;5.20;2.65;;;19.40;99.90;;;;;;5041761;28;20404;-83
2023/05/12 08:35:46;;;;;;;3.47;1.98;;;19.40;99.90;;;;;;5042521;28;20044;-80
2023/05/12 08:38:13;;;;;;;5.95;2.50;;;19.60;99.90;;;;;;5046963;28;20111;-75
2023/05/12 08:40:56;;;;;;;3.70;1.77;;;20.10;99.90;;;;;;5051001;28;20132;-81
2023/05/12 08:43:25;;;;;;;7.35;1.83;;;20.50;99.90;;;;;;5045943;28;20034;-77
2023/05/12 08:45:56;;;;;;;2.55;1.52;;;20.80;99.50;;;;;;5048849;28;20049;-78
2023/05/12 08:48:27;;;;;;;6.57;4.78;;;20.80;97.20;;;;;;5040434;28;20444;-83
2023/05/12 08:50:55;;;;;;;6.13;2.72;;;20.90;97.80;;;;;;5021769;28;20049;-76
2023/05/12 08:53:24;;;;;;;4.20;1.80;;;21.20;95.40;;;;;;5040492;28;20037;-75
2023/05/12 08:55:54;;;;;;;6.07;3.83;;;21.30;93.70;;;;;;5039815;28;20045;-77
2023/05/12 08:58:22;;;;;;;7.35;5.63;;;21.10;92.80;;;;;;5038403;28;20053;-77
2023/05/12 09:00:51;;;;;;;4.95;1.73;;;21.40;90.60;;;;;;5037921;28;20052;-76
2023/05/12 09:03:21;;;;;;;2.65;1.48;;;21.50;90.30;;;;;;5041332;28;20052;-75
2023/05/12 09:05:49;;;;;;;9.13;2.08;;;21.60;86.50;;;;;;5040294;28;20155;-76
2023/05/12 09:08:16;;;;;;;4.55;2.20;;;21.30;87.00;;;;;;5039743;28;20044;-75
2023/05/12 09:10:44;;;;;;;9.10;2.03;;;21.00;89.00;;;;;;5039502;28;20042;-75
2023/05/12 09:13:17;;;;;;;6.03;3.00;;;20.90;88.20;;;;;;5038311;28;20049;-77
2023/05/12 09:15:47;;;;;;;2.92;2.00;;;20.40;89.20;;;;;;5038981;28;20504;-77
2023/05/12 09:18:14;;;;;;;2.38;1.13;;;20.50;90.90;;;;;;5022382;28;20187;-75
2023/05/12 09:20:42;;;;;;;4.20;1.60;;;20.70;90.10;;;;;;5025006;28;20064;-77
2023/05/12 09:23:17;;;;;;;3.15;1.30;;;20.70;89.40;;;;;;5021405;28;20053;-76
2023/05/12 09:25:45;;;;;;;3.57;1.77;;;20.30;90.40;;;;;;5038246;28;20077;-76
2023/05/12 09:28:15;;;;;;;4.05;2.00;;;20.20;90.90;;;;;;5037512;28;20049;-77
2023/05/12 09:30:42;;;;;;;5.28;2.72;;;20.20;93.00;;;;;;5039821;28;20033;-76
2023/05/12 09:33:11;;;;;;;6.13;3.40;;;20.50;94.90;;;;;;5039093;28;20068;-77
2023/05/12 09:35:43;;;;;;;3.72;1.60;;;20.90;98.60;;;;;;5039838;28;20432;-76
2023/05/12 09:38:11;;;;;;;4.55;2.47;;;21.30;92.70;;;;;;5039257;28;20063;-75
2023/05/12 09:40:39;;;;;;;2.92;1.50;;;21.70;90.60;;;;;;5040387;28;20041;-76
2023/05/12 09:43:07;;;;;;;2.85;1.80;;;21.90;89.90;;;;;;5039112;28;20397;-77
2023/05/12 09:45:37;;;;;;;4.35;2.25;;;22.20;86.40;;;;;;5037375;28;20048;-77
2023/05/12 09:48:10;;;;;;;7.03;2.17;;;22.60;82.30;;;;;;5038096;28;20149;-76
2023/05/12 09:50:46;;;;;;;5.15;1.77;;;22.70;81.60;;;;;;5038990;28;20041;-75
2023/05/12 09:53:16;;;;;;;3.42;1.38;;;22.90;79.40;;;;;;5021153;28;20049;-76
2023/05/12 09:55:43;;;;;;;1.98;1.00;;;22.90;77.00;;;;;;5039476;28;20128;-75
2023/05/12 09:58:11;;;;;;;2.85;1.60;;;22.90;77.00;;;;;;5037864;28;20168;-76
2023/05/12 10:00:42;;;;;;;3.65;1.40;;;23.00;76.50;;;;;;5038815;28;20044;-76
2023/05/12 10:03:13;;;;;;;2.97;1.40;;;23.10;75.90;;;;;;5039565;28;20672;-76
2023/05/12 10:05:46;;;;;;;4.07;1.80;;;23.40;76.10;;;;;;5039020;28;20068;-77
2023/05/12 10:08:21;;;;;;;2.10;0.95;;;23.70;75.40;;;;;;5039675;28;20136;-77
2023/05/12 10:10:51;;;;;;;3.38;1.42;;;23.30;72.90;;;;;;5040040;28;20559;-75
2023/05/12 10:13:19;;;;;;;3.92;1.30;;;23.10;75.30;;;;;;5020688;28;20060;-76
2023/05/12 10:15:49;;;;;;;5.38;2.17;;;22.70;73.80;;;;;;5037803;28;20041;-74
2023/05/12 10:18:17;;;;;;;3.20;1.50;;;22.40;75.20;;;;;;5037339;28;21621;-76
2023/05/12 10:20:45;;;;;;;5.47;1.40;;;22.30;75.00;;;;;;5037900;28;20060;-75
2023/05/12 10:23:13;;;;;;;5.25;2.45;;;22.30;74.90;;;;;;5039184;28;20091;-76
2023/05/12 10:25:42;;;;;;;7.38;2.20;;;22.30;76.00;;;;;;5038622;28;20040;-79
2023/05/12 10:28:10;;;;;;;7.82;1.80;;;22.00;77.60;;;;;;5021409;28;20536;-77
2023/05/12 10:30:39;;;;;;;5.75;2.10;;;21.70;80.30;;;;;;5036950;28;20037;-77
2023/05/12 10:33:10;;;;;;;6.40;2.33;;;21.40;88.40;;;;;;5037016;28;20041;-77
2023/05/12 10:35:38;;;;;;;6.18;1.92;;;21.10;99.90;;;;;;5038139;28;20120;-76
2023/05/12 10:38:07;;;;;;;8.25;2.65;;;20.70;99.90;;;;;;5021449;28;20045;-76
2023/05/12 10:40:35;;;;;;;6.20;2.28;;;20.40;99.90;;;;;;5036961;28;20053;-77
2023/05/12 10:43:03;;;;;;;6.28;2.10;;;20.00;99.90;;;;;;5037281;28;20076;-77
2023/05/12 10:45:36;;;;;;;5.43;1.60;;;19.60;99.90;;;;;;5037340;28;20465;-74
2023/05/12 10:48:08;;;;;;;5.55;2.28;;;19.20;99.90;;;;;;5020727;28;20045;-77
2023/05/12 10:50:36;;;;;;;6.82;3.33;;;18.90;99.90;;;;;;5038540;28;20044;-76
2023/05/12 10:53:03;;;;;;;5.43;2.47;;;18.80;99.90;;;;;;5037804;28;20041;-76
2023/05/12 10:55:35;;;;;;;13.32;3.38;;;18.70;99.90;;;;;;5019095;28;20080;-77
2023/05/12 10:58:07;;;;;;;27.33;15.82;;;18.70;99.90;;;;;;5037017;28;20045;-77
2023/05/12 11:00:44;;;;;;;28.27;11.02;;;18.90;99.90;;;;;;5036848;28;20048;-77
2023/05/12 11:03:15;;;;;;;12.80;6.57;;;19.10;99.90;;;;;;5037814;28;20053;-76
2023/05/12 11:05:43;;;;;;;8.35;5.07;;;19.30;99.90;;;;;;5038543;28;20045;-77
2023/05/12 11:08:11;;;;;;;7.60;4.63;;;19.40;99.90;;;;;;5036920;28;20477;-76
2023/05/12 11:10:42;;;;;;;11.90;5.93;;;19.50;99.90;;;;;;5037238;28;20037;-77
2023/05/12 11:13:10;;;;;;;11.95;4.82;;;19.50;99.90;;;;;;5021575;28;20110;-77
2023/05/12 11:15:38;;;;;;;7.57;3.40;;;19.60;99.90;;;;;;5039422;28;20083;-76
2023/05/12 11:18:06;;;;;;;5.93;3.05;;;19.70;99.90;;;;;;5041072;28;20136;-77
2023/05/12 11:20:34;;;;;;;8.48;2.28;;;19.90;99.90;;;;;;5043369;28;20048;-77
2023/05/12 11:23:02;;;;;;;7.03;2.30;;;20.10;99.90;;;;;;5019067;28;20386;-77
2023/05/12 11:25:30;;;;;;;9.13;2.70;;;20.20;99.90;;;;;;5037587;28;20052;-77
2023/05/12 11:27:57;;;;;;;5.40;2.67;;;20.50;99.90;;;;;;5037616;28;20041;-77
2023/05/12 11:30:25;;;;;;;5.38;2.25;;;21.00;99.90;;;;;;5037157;28;20099;-76
2023/05/12 11:33:00;;;;;;;10.18;3.67;;;21.30;99.90;;;;;;5038347;28;20116;-76
2023/05/12 11:35:31;;;;;;;10.57;2.70;;;21.60;99.90;;;;;;5038272;28;20470;-76
2023/05/12 11:38:01;;;;;;;6.30;2.58;;;21.80;99.90;;;;;;5037476;28;20099;-77
2023/05/12 11:40:29;;;;;;;9.00;3.92;;;21.90;99.90;;;;;;5036407;28;20045;-76
2023/05/12 11:42:58;;;;;;;6.00;1.95;;;22.20;99.90;;;;;;5036417;28;20038;-74
2023/05/12 11:45:28;;;;;;;5.00;1.92;;;22.20;94.70;;;;;;5036733;28;20069;-76
2023/05/12 11:48:07;;;;;;;9.88;5.50;;;22.40;91.70;;;;;;5037026;28;20150;-76
2023/05/12 11:50:36;;;;;;;5.30;1.60;;;22.10;95.00;;;;;;5019206;28;20099;-74
2023/05/12 11:53:05;;;;;;;5.38;2.13;;;22.10;93.00;;;;;;5040618;28;20037;-76
2023/05/12 11:55:33;;;;;;;6.80;2.10;;;22.20;90.20;;;;;;5040518;28;20045;-75
2023/05/12 11:58:02;;;;;;;5.95;2.10;;;21.90;91.30;;;;;;5040471;28;20052;-76
2023/05/12 12:00:31;;;;;;;9.88;3.58;;;21.60;93.70;;;;;;5039533;28;20517;-76
2023/05/12 12:03:10;;;;;;;8.98;2.92;;;21.40;99.60;;;;;;5041033;28;20464;-75
2023/05/12 12:05:38;;;;;;;4.30;2.20;;;20.90;99.90;;;;;;5037763;28;20139;-77
2023/05/12 12:08:09;;;;;;;11.00;2.30;;;20.50;99.90;;;;;;5036244;28;20069;-77
2023/05/12 12:10:36;;;;;;;5.70;2.38;;;20.10;99.90;;;;;;5039927;28;20041;-76
2023/05/12 12:13:04;;;;;;;7.85;3.20;;;19.80;99.90;;;;;;5039027;28;20029;-76
2023/05/12 12:15:31;;;;;;;7.75;4.75;;;19.50;99.90;;;;;;5039042;28;20049;-77
2023/05/12 12:17:59;;;;;;;7.80;2.30;;;19.20;99.90;;;;;;5041184;28;20045;-76
2023/05/12 12:20:26;;;;;;;3.38;1.73;;;18.90;99.90;;;;;;5039159;28;20064;-74
2023/05/12 12:22:54;;;;;;;7.90;2.13;;;18.50;99.90;;;;;;5040761;28;20111;-75
2023/05/12 12:25:23;;;;;;;6.43;1.98;;;18.10;99.90;;;;;;5038855;28;20489;-76
2023/05/12 12:27:51;;;;;;;5.07;1.60;;;17.70;99.90;;;;;;5040504;28;20045;-76
2023/05/12 12:30:19;;;;;;;5.28;1.42;;;17.60;99.90;;;;;;5040811;28;20044;-77
2023/05/12 12:32:46;;;;;;;5.05;2.45;;;17.50;99.90;;;;;;5020807;28;20320;-76
2023/05/12 12:35:14;;;;;;;5.53;2.08;;;17.40;99.90;;;;;;5037731;28;20041;-78
2023/05/12 12:37:41;;;;;;;9.73;1.50;;;17.30;99.90;;;;;;5039185;28;20298;-77
2023/05/12 12:40:10;;;;;;;3.90;1.75;;;17.10;99.90;;;;;;5021343;28;20080;-74
2023/05/12 12:42:40;;;;;;;3.90;1.63;;;17.00;99.90;;;;;;5039672;28;20045;-77
2023/05/12 12:45:09;;;;;;;5.40;2.03;;;16.80;99.90;;;;;;5037492;28;20080;-76
2023/05/12 12:47:37;;;;;;;4.13;1.88;;;16.80;99.90;;;;;;5021330;28;20049;-77